sensor_id;sensor_type;location;lat;lon;timestamp;temperature;humidity
49052;DHT22;34866;48.670;18.260;2022-10-20T15:34:07;282.50;2201.60
49052;DHT22;34866;48.670;18.260;2022-10-20T15:36:39;281.90;2278.40
49052;DHT22;34866;48.670;18.260;2022-10-20T15:39:05;281.80;2278.40
49052;DHT22;34866;48.670;18.260;2022-10-20T15:41:33;281.70;2278.40
49052;DHT22;34866;48.670;18.260;2022-10-20T15:44:19;256.90;2252.80
49052;DHT22;34866;48.670;18.260;2022-10-20T15:46:50;256.90;2252.80
49052;DHT22;34866;48.670;18.260;2022-10-20T15:49:19;256.60;2252.80
49052;DHT22;34866;48.670;18.260;2022-10-20T15:51:47;256.30;2252.80
49052;DHT22;34866;48.670;18.260;2022-10-20T15:54:17;256.20;2252.80
49052;DHT22;34866;48.670;18.260;2022-10-20T15:56:43;256.10;2252.80
49052;DHT22;34866;48.670;18.260;2022-10-20T15:59:09;231.30;2252.80
49052;DHT22;34866;48.670;18.260;2022-10-20T16:01:35;231.20;2252.80
49052;DHT22;34866;48.670;18.260;2022-10-20T16:04:19;231.10;2252.80
49052;DHT22;34866;48.670;18.260;2022-10-20T16:06:48;231.30;2252.80
49052;DHT22;34866;48.670;18.260;2022-10-20T16:09:19;231.00;2252.80
49052;DHT22;34866;48.670;18.260;2022-10-20T16:11:45;230.70;2252.80
49052;DHT22;34866;48.670;18.260;2022-10-20T16:14:12;230.80;2252.80
49052;DHT22;34866;48.670;18.260;2022-10-20T16:16:38;231.00;2252.80
49052;DHT22;34866;48.670;18.260;2022-10-20T16:19:04;230.80;2252.80
49052;DHT22;34866;48.670;18.260;2022-10-20T16:21:29;230.70;2252.80
49052;DHT22;34866;48.670;18.260;2022-10-20T16:23:55;230.50;2252.80
49052;DHT22;34866;48.670;18.260;2022-10-20T16:26:21;230.40;2252.80
49052;DHT22;34866;48.670;18.260;2022-10-20T16:28:47;230.60;2252.80
49052;DHT22;34866;48.670;18.260;2022-10-20T16:31:14;230.70;2252.80
49052;DHT22;34866;48.670;18.260;2022-10-20T16:33:41;230.40;2252.80
49052;DHT22;34866;48.670;18.260;2022-10-20T16:36:08;205.60;2252.80
49052;DHT22;34866;48.670;18.260;2022-10-20T16:38:35;205.50;2252.80
49052;DHT22;34866;48.670;18.260;2022-10-20T16:41:07;205.50;2252.80
49052;DHT22;34866;48.670;18.260;2022-10-20T16:43:42;205.30;2252.80
49052;DHT22;34866;48.670;18.260;2022-10-20T16:46:09;205.20;2252.80
49052;DHT22;34866;48.670;18.260;2022-10-20T16:48:36;205.30;2252.80
49052;DHT22;34866;48.670;18.260;2022-10-20T16:51:07;205.30;2252.80
49052;DHT22;34866;48.670;18.260;2022-10-20T16:53:34;205.10;2252.80
49052;DHT22;34866;48.670;18.260;2022-10-20T16:56:00;205.10;2252.80
49052;DHT22;34866;48.670;18.260;2022-10-20T16:58:27;205.20;2252.80
49052;DHT22;34866;48.670;18.260;2022-10-20T17:01:02;205.10;2252.80
49052;DHT22;34866;48.670;18.260;2022-10-20T17:03:29;205.10;2252.80
49052;DHT22;34866;48.670;18.260;2022-10-20T17:05:59;205.40;2252.80
49052;DHT22;34866;48.670;18.260;2022-10-20T17:08:26;205.30;2252.80
49052;DHT22;34866;48.670;18.260;2022-10-20T17:11:05;205.30;2252.80
49052;DHT22;34866;48.670;18.260;2022-10-20T17:13:32;205.50;2252.80
49052;DHT22;34866;48.670;18.260;2022-10-20T17:16:10;205.60;2252.80
49052;DHT22;34866;48.670;18.260;2022-10-20T17:18:36;205.40;2252.80
49052;DHT22;34866;48.670;18.260;2022-10-20T17:21:02;205.30;2252.80
49052;DHT22;34866;48.670;18.260;2022-10-20T17:23:31;205.10;2252.80
49052;DHT22;34866;48.670;18.260;2022-10-20T17:25:58;205.00;2252.80
49052;DHT22;34866;48.670;18.260;2022-10-20T17:28:28;205.00;2252.80
49052;DHT22;34866;48.670;18.260;2022-10-20T17:30:54;204.80;2252.80
49052;DHT22;34866;48.670;18.260;2022-10-20T17:33:24;204.80;2252.80
49052;DHT22;34866;48.670;18.260;2022-10-20T17:35:52;204.80;2252.80
49052;DHT22;34866;48.670;18.260;2022-10-20T17:38:18;204.90;2252.80
49052;DHT22;34866;48.670;18.260;2022-10-20T17:40:45;205.00;2252.80
49052;DHT22;34866;48.670;18.260;2022-10-20T17:43:11;205.10;2252.80
49052;DHT22;34866;48.670;18.260;2022-10-20T17:45:38;204.90;2252.80
49052;DHT22;34866;48.670;18.260;2022-10-20T17:48:04;205.00;2252.80
49052;DHT22;34866;48.670;18.260;2022-10-20T17:50:29;205.10;2252.80
49052;DHT22;34866;48.670;18.260;2022-10-20T17:52:58;205.20;2252.80
49052;DHT22;34866;48.670;18.260;2022-10-20T17:55:29;204.80;2252.80
49052;DHT22;34866;48.670;18.260;2022-10-20T17:57:58;180.00;2252.80
49052;DHT22;34866;48.670;18.260;2022-10-20T18:00:24;180.00;2252.80
49052;DHT22;34866;48.670;18.260;2022-10-20T18:02:51;179.90;2252.80
49052;DHT22;34866;48.670;18.260;2022-10-20T18:05:17;179.80;2252.80
49052;DHT22;34866;48.670;18.260;2022-10-20T18:07:43;179.70;2252.80
49052;DHT22;34866;48.670;18.260;2022-10-20T18:10:11;179.60;2252.80
49052;DHT22;34866;48.670;18.260;2022-10-20T18:12:37;179.70;2252.80
49052;DHT22;34866;48.670;18.260;2022-10-20T18:15:04;179.60;2252.80
49052;DHT22;34866;48.670;18.260;2022-10-20T18:17:30;179.50;2252.80
49052;DHT22;34866;48.670;18.260;2022-10-20T18:19:55;179.50;2252.80
49052;DHT22;34866;48.670;18.260;2022-10-20T18:22:25;179.50;2252.80
49052;DHT22;34866;48.670;18.260;2022-10-20T18:24:56;179.30;2252.80
49052;DHT22;34866;48.670;18.260;2022-10-20T18:27:22;179.30;2252.80
49052;DHT22;34866;48.670;18.260;2022-10-20T18:29:48;179.20;2252.80
49052;DHT22;34866;48.670;18.260;2022-10-20T18:32:13;179.20;2252.80
49052;DHT22;34866;48.670;18.260;2022-10-20T18:34:40;179.20;2252.80
49052;DHT22;34866;48.670;18.260;2022-10-20T18:37:08;179.20;2252.80
49052;DHT22;34866;48.670;18.260;2022-10-20T18:39:33;154.50;2252.80
49052;DHT22;34866;48.670;18.260;2022-10-20T18:41:59;154.40;2252.80
49052;DHT22;34866;48.670;18.260;2022-10-20T18:44:25;154.40;2252.80
49052;DHT22;34866;48.670;18.260;2022-10-20T18:46:52;154.30;2252.80
49052;DHT22;34866;48.670;18.260;2022-10-20T18:49:22;154.20;2252.80
49052;DHT22;34866;48.670;18.260;2022-10-20T18:51:49;154.10;2252.80
49052;DHT22;34866;48.670;18.260;2022-10-20T18:54:15;154.10;2252.80
49052;DHT22;34866;48.670;18.260;2022-10-20T18:56:41;153.90;2252.80
49052;DHT22;34866;48.670;18.260;2022-10-20T18:59:14;153.80;2252.80
49052;DHT22;34866;48.670;18.260;2022-10-20T19:01:41;153.80;2252.80
49052;DHT22;34866;48.670;18.260;2022-10-20T19:04:09;153.80;2252.80
49052;DHT22;34866;48.670;18.260;2022-10-20T19:06:40;153.70;2252.80
49052;DHT22;34866;48.670;18.260;2022-10-20T19:09:09;153.60;2252.80
49052;DHT22;34866;48.670;18.260;2022-10-20T19:11:37;128.80;2252.80
49052;DHT22;34866;48.670;18.260;2022-10-20T19:14:04;128.90;2252.80
49052;DHT22;34866;48.670;18.260;2022-10-20T19:16:34;128.90;2252.80
49052;DHT22;34866;48.670;18.260;2022-10-20T19:19:02;128.70;2252.80
49052;DHT22;34866;48.670;18.260;2022-10-20T19:21:34;128.40;2252.80
49052;DHT22;34866;48.670;18.260;2022-10-20T19:24:10;128.50;2252.80
49052;DHT22;34866;48.670;18.260;2022-10-20T19:26:41;128.40;2252.80
49052;DHT22;34866;48.670;18.260;2022-10-20T19:29:13;128.40;2252.80
49052;DHT22;34866;48.670;18.260;2022-10-20T19:34:15;128.10;2252.80
49052;DHT22;34866;48.670;18.260;2022-10-20T19:36:44;128.20;2252.80
49052;DHT22;34866;48.670;18.260;2022-10-20T19:39:16;103.30;2227.20
49052;DHT22;34866;48.670;18.260;2022-10-20T19:41:42;103.20;2227.20
49052;DHT22;34866;48.670;18.260;2022-10-20T19:44:08;103.30;2227.20
49052;DHT22;34866;48.670;18.260;2022-10-20T19:46:41;103.10;2227.20
49052;DHT22;34866;48.670;18.260;2022-10-20T19:49:07;103.10;2227.20
49052;DHT22;34866;48.670;18.260;2022-10-20T19:51:34;103.20;2227.20
49052;DHT22;34866;48.670;18.260;2022-10-20T19:54:00;103.10;2227.20
49052;DHT22;34866;48.670;18.260;2022-10-20T19:56:28;102.70;2227.20
49052;DHT22;34866;48.670;18.260;2022-10-20T19:58:54;102.80;2227.20
49052;DHT22;34866;48.670;18.260;2022-10-20T20:01:20;102.90;2227.20
49052;DHT22;34866;48.670;18.260;2022-10-20T20:03:46;102.90;2227.20
49052;DHT22;34866;48.670;18.260;2022-10-20T20:06:17;102.80;2227.20
49052;DHT22;34866;48.670;18.260;2022-10-20T20:08:45;102.70;2227.20
49052;DHT22;34866;48.670;18.260;2022-10-20T20:11:12;102.70;2227.20
49052;DHT22;34866;48.670;18.260;2022-10-20T20:13:51;102.50;2227.20
49052;DHT22;34866;48.670;18.260;2022-10-20T20:16:17;102.60;2227.20
49052;DHT22;34866;48.670;18.260;2022-10-20T20:18:43;102.60;2227.20
49052;DHT22;34866;48.670;18.260;2022-10-20T20:21:09;102.60;2227.20
49052;DHT22;34866;48.670;18.260;2022-10-20T20:23:35;102.70;2227.20
49052;DHT22;34866;48.670;18.260;2022-10-20T20:26:02;102.50;2227.20
49052;DHT22;34866;48.670;18.260;2022-10-20T20:28:29;77.70;2227.20
49052;DHT22;34866;48.670;18.260;2022-10-20T20:33:29;102.50;2227.20
49052;DHT22;34866;48.670;18.260;2022-10-20T20:36:00;102.50;2227.20
49052;DHT22;34866;48.670;18.260;2022-10-20T20:38:26;77.70;2227.20
49052;DHT22;34866;48.670;18.260;2022-10-20T20:40:57;77.50;2227.20
49052;DHT22;34866;48.670;18.260;2022-10-20T20:43:24;77.50;2227.20
49052;DHT22;34866;48.670;18.260;2022-10-20T20:45:49;77.60;2227.20
49052;DHT22;34866;48.670;18.260;2022-10-20T20:48:15;77.50;2227.20
49052;DHT22;34866;48.670;18.260;2022-10-20T20:50:41;77.30;2227.20
49052;DHT22;34866;48.670;18.260;2022-10-20T20:53:18;77.30;2227.20
49052;DHT22;34866;48.670;18.260;2022-10-20T20:58:19;77.20;2227.20
49052;DHT22;34866;48.670;18.260;2022-10-20T21:00:45;77.30;2227.20
49052;DHT22;34866;48.670;18.260;2022-10-20T21:03:10;77.40;2227.20
49052;DHT22;34866;48.670;18.260;2022-10-20T21:05:36;77.20;2227.20
49052;DHT22;34866;48.670;18.260;2022-10-20T21:08:02;77.20;2227.20
49052;DHT22;34866;48.670;18.260;2022-10-20T21:10:29;77.20;2227.20
49052;DHT22;34866;48.670;18.260;2022-10-20T21:12:54;77.30;2227.20
49052;DHT22;34866;48.670;18.260;2022-10-20T21:15:20;77.30;2227.20
49052;DHT22;34866;48.670;18.260;2022-10-20T21:17:46;77.30;2227.20
49052;DHT22;34866;48.670;18.260;2022-10-20T21:20:15;77.10;2227.20
49052;DHT22;34866;48.670;18.260;2022-10-20T21:22:46;77.10;2227.20
49052;DHT22;34866;48.670;18.260;2022-10-20T21:25:12;77.00;2150.40
49052;DHT22;34866;48.670;18.260;2022-10-20T21:27:39;77.10;1868.80
49052;DHT22;34866;48.670;18.260;2022-10-20T21:30:06;77.10;2227.20
49052;DHT22;34866;48.670;18.260;2022-10-20T21:32:32;77.10;2227.20
49052;DHT22;34866;48.670;18.260;2022-10-20T21:34:58;77.10;2227.20
49052;DHT22;34866;48.670;18.260;2022-10-20T21:37:27;77.00;2227.20
49052;DHT22;34866;48.670;18.260;2022-10-20T21:39:53;76.90;2124.80
49052;DHT22;34866;48.670;18.260;2022-10-20T21:42:18;76.90;1920.00
49052;DHT22;34866;48.670;18.260;2022-10-20T21:44:44;76.80;2227.20
49052;DHT22;34866;48.670;18.260;2022-10-20T21:47:11;76.90;2048.00
49052;DHT22;34866;48.670;18.260;2022-10-20T21:49:36;76.90;2227.20
49052;DHT22;34866;48.670;18.260;2022-10-20T21:52:03;76.80;1996.80
49052;DHT22;34866;48.670;18.260;2022-10-20T21:54:28;76.90;2073.60
49052;DHT22;34866;48.670;18.260;2022-10-20T21:56:55;76.80;2227.20
49052;DHT22;34866;48.670;18.260;2022-10-20T21:59:28;52.10;2227.20
49052;DHT22;34866;48.670;18.260;2022-10-20T22:01:56;76.80;2227.20
49052;DHT22;34866;48.670;18.260;2022-10-20T22:04:25;52.10;2227.20
49052;DHT22;34866;48.670;18.260;2022-10-20T22:06:51;52.10;2227.20
49052;DHT22;34866;48.670;18.260;2022-10-20T22:09:17;51.90;1843.20
49052;DHT22;34866;48.670;18.260;2022-10-20T22:11:48;52.00;2150.40
49052;DHT22;34866;48.670;18.260;2022-10-20T22:14:14;52.00;2227.20
49052;DHT22;34866;48.670;18.260;2022-10-20T22:16:41;52.10;2227.20
49052;DHT22;34866;48.670;18.260;2022-10-20T22:19:12;52.10;2227.20
49052;DHT22;34866;48.670;18.260;2022-10-20T22:21:40;52.00;2227.20
49052;DHT22;34866;48.670;18.260;2022-10-20T22:24:07;52.10;2227.20
49052;DHT22;34866;48.670;18.260;2022-10-20T22:26:36;52.10;2227.20
49052;DHT22;34866;48.670;18.260;2022-10-20T22:29:03;76.90;2150.40
49052;DHT22;34866;48.670;18.260;2022-10-20T22:31:29;77.10;2227.20
49052;DHT22;34866;48.670;18.260;2022-10-20T22:33:57;77.40;2227.20
49052;DHT22;34866;48.670;18.260;2022-10-20T22:36:24;77.60;2227.20
49052;DHT22;34866;48.670;18.260;2022-10-20T22:38:50;77.10;2227.20
49052;DHT22;34866;48.670;18.260;2022-10-20T22:41:17;77.00;2227.20
49052;DHT22;34866;48.670;18.260;2022-10-20T22:43:43;77.10;2227.20
49052;DHT22;34866;48.670;18.260;2022-10-20T22:46:09;77.10;2124.80
49052;DHT22;34866;48.670;18.260;2022-10-20T22:48:35;77.00;2227.20
49052;DHT22;34866;48.670;18.260;2022-10-20T22:51:08;77.20;2227.20
49052;DHT22;34866;48.670;18.260;2022-10-20T22:53:35;77.30;2227.20
49052;DHT22;34866;48.670;18.260;2022-10-20T22:56:14;77.30;1920.00
49052;DHT22;34866;48.670;18.260;2022-10-20T22:58:41;77.30;2227.20
49052;DHT22;34866;48.670;18.260;2022-10-20T23:01:09;77.30;2227.20
49052;DHT22;34866;48.670;18.260;2022-10-20T23:03:34;77.50;2099.20
49052;DHT22;34866;48.670;18.260;2022-10-20T23:06:11;77.50;2227.20
49052;DHT22;34866;48.670;18.260;2022-10-20T23:08:45;77.30;2227.20
49052;DHT22;34866;48.670;18.260;2022-10-20T23:11:12;77.00;2227.20
49052;DHT22;34866;48.670;18.260;2022-10-20T23:13:38;77.30;1920.00
49052;DHT22;34866;48.670;18.260;2022-10-20T23:16:04;77.60;2227.20
49052;DHT22;34866;48.670;18.260;2022-10-20T23:18:30;102.50;2227.20
49052;DHT22;34866;48.670;18.260;2022-10-20T23:20:56;102.80;2176.00
49052;DHT22;34866;48.670;18.260;2022-10-20T23:23:21;102.90;2227.20
49052;DHT22;34866;48.670;18.260;2022-10-20T23:25:48;103.00;2227.20
49052;DHT22;34866;48.670;18.260;2022-10-20T23:28:15;103.10;2227.20
49052;DHT22;34866;48.670;18.260;2022-10-20T23:30:41;102.60;2227.20
49052;DHT22;34866;48.670;18.260;2022-10-20T23:33:06;102.60;2227.20
49052;DHT22;34866;48.670;18.260;2022-10-20T23:35:37;102.40;2227.20
49052;DHT22;34866;48.670;18.260;2022-10-20T23:38:03;77.50;2227.20
49052;DHT22;34866;48.670;18.260;2022-10-20T23:40:29;77.20;2227.20
49052;DHT22;34866;48.670;18.260;2022-10-20T23:42:55;77.10;2227.20
49052;DHT22;34866;48.670;18.260;2022-10-20T23:45:21;77.00;2227.20
49052;DHT22;34866;48.670;18.260;2022-10-20T23:47:46;77.40;2227.20
49052;DHT22;34866;48.670;18.260;2022-10-20T23:50:12;77.50;2227.20
49052;DHT22;34866;48.670;18.260;2022-10-20T23:52:38;102.60;2227.20
49052;DHT22;34866;48.670;18.260;2022-10-20T23:55:04;102.80;2227.20
49052;DHT22;34866;48.670;18.260;2022-10-20T23:57:30;102.60;1920.00
49052;DHT22;34866;48.670;18.260;2022-10-20T23:59:56;102.60;2227.20
